Time;durP1;ratioP1;P1;durP2;ratioP2;P2;SDS_P1;SDS_P2;PMS_P1;PMS_P2;Temp;Humidity;BMP_temperature;BMP_pressure;BME280_temperature;BME280_humidity;BME280_pressure;Samples;Min_cycle;Max_cycle;Signal;HPM_P1;HPM_P2
2023/01/31 00:01:11;;;;;;;26.67;3.58;;;;;;;2.22;81.27;101002.00;10458125;28;20076;-76
2023/01/31 00:06:17;;;;;;;16.95;3.17;;;;;;;2.42;80.16;100989.81;10479566;28;20068;-76
2023/01/31 00:11:22;;;;;;;13.43;2.75;;;;;;;2.30;79.71;101005.22;10487828;28;20532;-75
2023/01/31 00:16:26;;;;;;;29.15;2.88;;;;;;;2.76;79.15;100997.38;10480471;28;20052;-76
2023/01/31 00:21:31;;;;;;;21.73;4.07;;;;;;;2.57;79.74;101013.13;10461218;28;20048;-76
2023/01/31 00:26:35;;;;;;;19.95;2.47;;;;;;;3.19;78.59;101014.25;10483035;28;20044;-76
2023/01/31 00:31:38;;;;;;;24.58;3.83;;;;;;;3.06;79.19;100997.94;10473168;28;20049;-76
2023/01/31 00:36:43;;;;;;;22.00;2.63;;;;;;;3.03;78.71;101003.38;10481428;28;20047;-76
2023/01/31 00:41:46;;;;;;;25.90;3.38;;;;;;;3.03;78.96;100990.13;10481700;28;20060;-76
2023/01/31 00:46:48;;;;;;;21.95;3.95;;;;;;;3.04;79.63;100998.03;10490243;28;20511;-76
2023/01/31 00:51:53;;;;;;;25.55;3.42;;;;;;;3.03;79.78;101003.38;10479637;28;20072;-76
2023/01/31 00:56:55;;;;;;;22.27;2.60;;;;;;;2.65;81.66;101008.38;10475104;28;20041;-75
2023/01/31 01:01:58;;;;;;;27.05;3.45;;;;;;;2.99;79.73;101002.66;10459322;28;20049;-76
2023/01/31 01:07:03;;;;;;;19.77;3.55;;;;;;;3.10;79.15;101015.50;10457965;28;20068;-76
2023/01/31 01:12:08;;;;;;;27.40;3.92;;;;;;;3.03;79.10;101016.66;10453192;28;20048;-76
2023/01/31 01:17:10;;;;;;;18.15;3.03;;;;;;;2.78;79.33;101011.44;10464341;28;20444;-76
2023/01/31 01:22:15;;;;;;;20.90;2.83;;;;;;;2.51;81.05;101016.84;10483071;28;20057;-76
2023/01/31 01:27:17;;;;;;;34.80;5.70;;;;;;;3.08;78.31;101032.41;10482787;28;20043;-75
2023/01/31 01:32:20;;;;;;;36.05;4.90;;;;;;;2.69;80.88;101010.00;10470898;28;20403;-76
2023/01/31 01:37:25;;;;;;;24.17;4.22;;;;;;;2.76;79.56;101018.59;10475868;28;20053;-76
2023/01/31 01:42:32;;;;;;;23.73;3.60;;;;;;;2.67;79.65;101027.78;10452828;28;20072;-76
2023/01/31 01:47:40;;;;;;;15.55;3.03;;;;;;;2.38;81.02;101032.31;10468917;28;20056;-77
2023/01/31 01:52:47;;;;;;;25.40;3.40;;;;;;;2.56;80.05;101032.63;10465285;28;20083;-77
2023/01/31 01:57:56;;;;;;;24.02;3.30;;;;;;;2.64;80.04;101033.19;10476056;28;20502;-76
2023/01/31 02:03:05;;;;;;;18.02;2.90;;;;;;;2.72;79.09;101043.53;10471143;28;20045;-77
2023/01/31 02:08:10;;;;;;;18.85;3.15;;;;;;;2.54;80.02;101031.81;10454540;28;20099;-77
2023/01/31 02:13:13;;;;;;;8.23;2.20;;;;;;;2.29;80.49;101048.59;10470919;28;20649;-76
2023/01/31 02:18:20;;;;;;;21.33;3.42;;;;;;;2.97;77.92;101062.03;10468679;28;20128;-76
2023/01/31 02:23:51;;;;;;;16.75;3.00;;;;;;;2.64;78.31;101067.69;10484491;28;20052;-75
2023/01/31 02:29:26;;;;;;;16.95;3.67;;;;;;;2.34;79.30;101062.53;10482664;28;20037;-76
2023/01/31 02:34:36;;;;;;;18.98;2.90;;;;;;;2.69;78.08;101054.22;10468597;28;20056;-78
2023/01/31 02:39:49;;;;;;;18.65;2.90;;;;;;;2.31;79.42;101072.41;10474694;28;20051;-77
2023/01/31 02:44:59;;;;;;;25.92;3.67;;;;;;;2.58;77.84;101067.91;10484444;28;20037;-76
2023/01/31 02:50:12;;;;;;;26.13;3.72;;;;;;;2.49;78.42;101070.84;10488001;28;20064;-77
2023/01/31 03:00:46;;;;;;;18.75;2.97;;;;;;;2.01;79.87;101071.69;10480689;28;20044;-76
2023/01/31 03:06:32;;;;;;;18.77;2.65;;;;;;;1.89;80.55;101086.19;10471568;28;20037;-76
2023/01/31 03:11:46;;;;;;;9.07;1.60;;;;;;;1.91;79.76;101077.28;10486301;28;20045;-76
2023/01/31 03:29:06;;;;;;;16.70;3.17;;;;;;;1.59;80.45;101056.31;10460282;28;20439;-75
2023/01/31 03:34:15;;;;;;;12.10;3.38;;;;;;;1.86;79.94;101043.91;10480938;28;20045;-76
2023/01/31 03:39:32;;;;;;;17.33;3.28;;;;;;;1.91;79.76;101034.88;10475417;28;20041;-76
2023/01/31 03:44:43;;;;;;;21.35;3.67;;;;;;;1.85;80.21;101029.81;10500513;28;20056;-76
2023/01/31 03:49:48;;;;;;;8.73;1.83;;;;;;;1.59;80.91;101025.41;10484807;28;20131;-76
2023/01/31 03:54:57;;;;;;;23.15;3.63;;;;;;;1.34;82.08;101020.03;10484013;28;20461;-76
2023/01/31 04:00:05;;;;;;;23.58;3.60;;;;;;;1.60;80.83;101015.69;10491817;28;20138;-77
2023/01/31 04:05:20;;;;;;;11.13;2.33;;;;;;;1.13;82.75;101028.69;10487046;28;20037;-76
2023/01/31 04:10:28;;;;;;;7.40;1.70;;;;;;;1.61;80.74;101010.31;10493448;28;20102;-76
2023/01/31 04:15:32;;;;;;;18.52;3.50;;;;;;;1.61;80.85;101006.81;10487317;28;20041;-76
2023/01/31 04:20:34;;;;;;;23.50;4.45;;;;;;;1.56;81.02;101006.94;10477858;28;20057;-76
2023/01/31 04:25:37;;;;;;;19.30;3.97;;;;;;;1.67;80.97;101006.59;10466580;28;20047;-76
2023/01/31 04:30:41;;;;;;;11.20;2.47;;;;;;;1.57;81.59;101006.06;10458221;28;20131;-76
2023/01/31 04:35:44;;;;;;;23.08;4.50;;;;;;;1.63;81.39;101005.84;10473797;28;20080;-76
2023/01/31 04:40:47;;;;;;;12.57;2.95;;;;;;;1.38;82.01;101003.16;10473146;28;20479;-76
2023/01/31 04:45:51;;;;;;;24.30;2.97;;;;;;;1.61;81.07;101002.38;10466747;28;20071;-76
2023/01/31 04:50:54;;;;;;;16.35;3.05;;;;;;;1.65;80.64;100989.91;10454537;28;20048;-76
2023/01/31 04:55:56;;;;;;;21.95;5.40;;;;;;;1.65;80.92;100998.72;10486030;28;20039;-76
2023/01/31 05:01:00;;;;;;;17.85;3.63;;;;;;;1.61;80.41;101006.81;10452809;28;20079;-76
2023/01/31 05:06:04;;;;;;;16.40;3.95;;;;;;;1.72;80.95;100988.75;10459192;28;20045;-76
2023/01/31 05:11:08;;;;;;;23.23;4.18;;;;;;;2.09;79.02;100984.81;10457023;28;20099;-76
2023/01/31 05:16:12;;;;;;;17.98;3.72;;;;;;;1.89;79.91;100986.41;10461611;28;20041;-76
2023/01/31 05:21:15;;;;;;;20.90;3.95;;;;;;;1.99;78.92;100978.97;10469983;28;20048;-76
2023/01/31 05:26:18;;;;;;;14.90;2.53;;;;;;;2.04;79.10;100955.84;10481295;28;20541;-76
2023/01/31 05:31:22;;;;;;;22.23;3.05;;;;;;;2.14;78.66;100945.78;10453155;28;20044;-76
2023/01/31 05:36:25;;;;;;;8.75;2.88;;;;;;;2.22;77.97;100941.00;10470045;28;20047;-76
2023/01/31 05:41:27;;;;;;;15.82;3.05;;;;;;;2.42;77.50;100939.44;10470264;28;20496;-76
2023/01/31 05:46:31;;;;;;;15.52;3.40;;;;;;;2.40;77.24;100942.97;10470052;28;20107;-76
2023/01/31 05:51:34;;;;;;;13.25;2.67;;;;;;;2.42;77.41;100940.28;10476131;28;20052;-76
2023/01/31 05:56:37;;;;;;;15.05;3.08;;;;;;;2.50;77.55;100935.56;10489987;28;20041;-75
2023/01/31 06:01:42;;;;;;;18.05;3.47;;;;;;;2.39;77.71;100933.31;10482828;28;20123;-76
2023/01/31 06:06:44;;;;;;;6.95;1.98;;;;;;;2.58;77.61;100927.34;10495485;28;20045;-76
2023/01/31 06:11:47;;;;;;;21.10;5.53;;;;;;;2.70;77.64;100929.50;10483743;28;20068;-76
2023/01/31 06:16:51;;;;;;;12.45;4.40;;;;;;;2.74;77.72;100927.56;10459701;28;20072;-76
2023/01/31 06:21:54;;;;;;;16.50;3.78;;;;;;;2.75;77.17;100926.66;10478998;28;20045;-76
2023/01/31 06:26:56;;;;;;;15.63;3.90;;;;;;;2.90;77.05;100919.88;10468914;28;20048;-76
2023/01/31 06:32:01;;;;;;;21.15;5.50;;;;;;;3.19;76.25;100916.88;10457522;28;20045;-76
2023/01/31 06:37:03;;;;;;;12.32;3.88;;;;;;;3.09;75.88;100912.88;10474350;28;20037;-76
2023/01/31 06:42:06;;;;;;;26.77;4.70;;;;;;;3.20;76.05;100920.41;10467862;28;20060;-76
2023/01/31 06:47:13;;;;;;;15.63;3.83;;;;;;;2.94;76.88;100922.34;10468999;28;20044;-76
2023/01/31 06:52:16;;;;;;;35.03;6.70;;;;;;;3.29;75.84;100890.78;10458526;28;20045;-76
2023/01/31 06:57:19;;;;;;;17.95;5.07;;;;;;;3.19;75.99;100906.25;10455387;28;20049;-76
2023/01/31 07:02:23;;;;;;;21.25;6.18;;;;;;;3.13;76.13;100911.84;10466311;28;20127;-76
2023/01/31 07:07:26;;;;;;;16.23;4.50;;;;;;;3.18;76.40;100911.63;10451174;28;20072;-76
2023/01/31 07:12:28;;;;;;;25.55;6.63;;;;;;;3.34;75.80;100894.13;10454819;28;20136;-76
2023/01/31 07:17:33;;;;;;;20.98;6.13;;;;;;;3.25;76.22;100898.03;10451095;28;20037;-76
2023/01/31 07:22:36;;;;;;;30.48;5.95;;;;;;;2.78;77.54;100889.41;10464222;28;20048;-76
2023/01/31 07:27:38;;;;;;;9.38;3.78;;;;;;;3.15;75.96;100869.28;10469309;28;20037;-76
2023/01/31 07:32:42;;;;;;;24.45;7.00;;;;;;;3.22;75.40;100866.31;10459612;28;20471;-76
2023/01/31 07:37:46;;;;;;;17.92;6.53;;;;;;;3.32;75.07;100866.78;10453614;28;20409;-76
2023/01/31 07:42:48;;;;;;;15.80;5.68;;;;;;;3.10;75.62;100869.50;10467509;28;20052;-76
2023/01/31 07:47:53;;;;;;;21.48;5.93;;;;;;;3.27;75.77;100856.34;10480148;28;20078;-76
2023/01/31 07:52:57;;;;;;;22.80;7.40;;;;;;;2.99;77.31;100850.47;10489516;28;20036;-76
2023/01/31 07:58:00;;;;;;;25.80;8.30;;;;;;;3.08;76.81;100843.94;10489822;28;20048;-76
2023/01/31 08:08:25;;;;;;;20.25;6.50;;;;;;;2.83;78.21;100829.03;10491529;28;20040;-76
2023/01/31 08:13:28;;;;;;;22.48;8.07;;;;;;;3.16;77.16;100834.72;10489205;28;20041;-76
2023/01/31 08:18:32;;;;;;;27.33;8.57;;;;;;;3.24;76.87;100835.25;10483589;28;20037;-76
2023/01/31 08:23:37;;;;;;;30.25;9.88;;;;;;;2.78;77.95;100825.72;10492901;28;20032;-75
2023/01/31 08:28:40;;;;;;;18.10;7.13;;;;;;;3.13;77.29;100810.94;10491554;28;20040;-75
2023/01/31 08:33:44;;;;;;;25.10;10.00;;;;;;;3.52;76.18;100780.91;10492641;28;20443;-75
2023/01/31 08:38:48;;;;;;;22.35;7.90;;;;;;;3.35;76.30;100783.47;10483310;28;20040;-75
2023/01/31 08:43:51;;;;;;;23.00;6.53;;;;;;;3.44;75.47;100778.59;10492166;28;20052;-75
2023/01/31 08:49:01;;;;;;;12.77;6.10;;;;;;;3.28;76.33;100772.22;10493898;28;20036;-75
2023/01/31 08:54:04;;;;;;;24.13;7.78;;;;;;;3.06;78.93;100769.66;10490248;28;20064;-77
2023/01/31 08:59:07;;;;;;;21.20;7.22;;;;;;;2.66;83.05;100786.41;10453308;28;20048;-76
2023/01/31 09:04:11;;;;;;;18.77;6.68;;;;;;;2.39;84.69;100797.22;10447110;28;20233;-74
2023/01/31 09:09:14;;;;;;;37.13;7.90;;;;;;;2.72;84.21;100757.84;10455479;28;20507;-76
2023/01/31 09:14:17;;;;;;;16.00;5.65;;;;;;;2.54;84.39;100758.63;10450536;28;20043;-76
2023/01/31 09:19:22;;;;;;;17.00;5.82;;;;;;;2.59;84.82;100741.59;10444501;28;20055;-77
2023/01/31 09:24:25;;;;;;;13.40;6.53;;;;;;;2.20;86.38;100780.34;10451120;28;20564;-76
2023/01/31 09:29:28;;;;;;;27.98;8.05;;;;;;;2.59;86.76;100732.78;10451183;28;21263;-76
2023/01/31 09:34:33;;;;;;;27.27;8.45;;;;;;;2.38;87.74;100743.31;10445971;28;21168;-77
2023/01/31 09:39:35;;;;;;;23.98;9.77;;;;;;;2.35;88.10;100716.06;10443790;28;20049;-76
2023/01/31 09:44:41;;;;;;;24.60;7.35;;;;;;;2.28;89.43;100715.47;10450078;28;20052;-76
2023/01/31 09:49:49;;;;;;;18.88;8.82;;;;;;;2.55;88.63;100717.91;10449324;28;20722;-77
2023/01/31 09:54:51;;;;;;;21.65;6.78;;;;;;;2.23;89.61;100733.34;10446151;28;20089;-76
2023/01/31 10:00:02;;;;;;;26.33;10.48;;;;;;;2.38;89.92;100727.38;10428174;28;20056;-75
2023/01/31 10:05:21;;;;;;;16.27;6.73;;;;;;;2.35;88.68;100737.28;10445075;28;20131;-77
2023/01/31 10:10:36;;;;;;;19.45;9.25;;;;;;;2.81;87.81;100735.38;10452059;28;20094;-77
2023/01/31 10:15:44;;;;;;;18.10;9.80;;;;;;;2.69;87.40;100735.88;10447534;28;20045;-76
2023/01/31 10:20:52;;;;;;;36.58;12.15;;;;;;;2.82;87.18;100710.56;10443476;28;20040;-76
2023/01/31 10:25:59;;;;;;;24.92;8.82;;;;;;;2.69;86.21;100689.03;10446634;28;20056;-77
2023/01/31 10:31:07;;;;;;;26.42;12.32;;;;;;;2.86;86.67;100703.34;10447077;28;20048;-77
2023/01/31 10:36:18;;;;;;;16.73;8.05;;;;;;;2.50;87.16;100696.00;10428157;28;20079;-77
2023/01/31 10:41:31;;;;;;;24.50;7.35;;;;;;;2.74;86.19;100697.66;10415080;28;20079;-77
2023/01/31 10:46:34;;;;;;;29.58;10.95;;;;;;;2.87;85.83;100684.69;10414943;28;20051;-76
2023/01/31 10:51:55;;;;;;;33.65;12.80;;;;;;;3.12;84.70;100691.56;10438869;28;20049;-77
2023/01/31 10:56:58;;;;;;;26.02;9.27;;;;;;;2.87;85.05;100660.81;10436487;28;20186;-76
2023/01/31 11:02:03;;;;;;;29.15;10.77;;;;;;;2.99;84.96;100654.06;10414278;28;20650;-76
2023/01/31 11:07:09;;;;;;;26.75;10.93;;;;;;;3.21;84.64;100649.53;10429813;28;20604;-76
2023/01/31 11:12:12;;;;;;;16.30;7.57;;;;;;;2.99;84.84;100631.06;10431365;28;20126;-76
2023/01/31 11:17:20;;;;;;;23.13;9.50;;;;;;;2.76;85.79;100616.16;10442823;28;20116;-76
2023/01/31 11:22:27;;;;;;;27.63;11.93;;;;;;;3.01;86.47;100593.81;10460896;28;21466;-77
2023/01/31 11:27:36;;;;;;;30.05;11.85;;;;;;;2.99;86.32;100587.72;10421425;28;20052;-76
2023/01/31 11:32:43;;;;;;;20.77;9.95;;;;;;;3.05;86.34;100588.31;10441278;28;20036;-76
2023/01/31 11:37:52;;;;;;;16.77;8.90;;;;;;;2.92;86.77;100611.03;10432260;28;20127;-77
2023/01/31 11:42:57;;;;;;;23.83;11.43;;;;;;;2.88;87.22;100592.66;10426949;28;20053;-76
2023/01/31 11:48:10;;;;;;;30.90;11.73;;;;;;;2.84;87.39;100574.22;10430608;28;20131;-77
2023/01/31 11:53:18;;;;;;;30.38;12.05;;;;;;;2.94;87.03;100581.78;10443210;28;20048;-77
2023/01/31 11:58:24;;;;;;;26.15;10.93;;;;;;;2.88;86.91;100576.75;10438292;28;20443;-77
2023/01/31 12:03:29;;;;;;;26.75;11.38;;;;;;;2.75;87.09;100589.72;10442792;28;20051;-76
2023/01/31 12:08:35;;;;;;;22.67;10.05;;;;;;;3.04;86.59;100564.50;10454518;28;20037;-75
2023/01/31 12:13:49;;;;;;;28.23;14.30;;;;;;;3.28;85.13;100560.66;10429461;28;20082;-76
2023/01/31 12:19:04;;;;;;;26.60;10.18;;;;;;;3.28;85.11;100541.22;10443542;28;20048;-77
2023/01/31 12:24:24;;;;;;;25.63;12.65;;;;;;;3.11;86.38;100518.16;10427624;28;20123;-77
2023/01/31 12:30:00;;;;;;;31.75;12.00;;;;;;;3.08;86.37;100512.13;10459099;28;20045;-76
2023/01/31 12:35:23;;;;;;;30.95;13.43;;;;;;;3.05;86.89;100502.53;10497136;28;20075;-78
2023/01/31 12:40:39;;;;;;;24.35;11.35;;;;;;;3.19;86.42;100515.13;10502092;28;20048;-77
2023/01/31 12:46:08;;;;;;;33.28;14.27;;;;;;;3.02;88.49;100522.13;10479503;28;21182;-77
2023/01/31 12:51:25;;;;;;;24.88;13.20;;;;;;;2.95;90.57;100522.47;10465580;28;20053;-78
2023/01/31 12:56:47;;;;;;;38.35;20.77;;;;;;;3.16;91.00;100525.91;10470262;28;20125;-77
2023/01/31 13:01:55;;;;;;;33.03;15.70;;;;;;;2.83;92.40;100527.41;10462724;28;20057;-78
2023/01/31 13:07:01;;;;;;;35.58;18.55;;;;;;;3.01;93.11;100533.63;10453766;28;20435;-77
2023/01/31 13:12:09;;;;;;;37.83;22.02;;;;;;;3.09;92.61;100538.59;10457841;28;21489;-78
2023/01/31 13:17:17;;;;;;;24.67;12.98;;;;;;;3.10;93.30;100528.84;10464948;28;20044;-78
2023/01/31 13:22:23;;;;;;;25.05;14.93;;;;;;;2.96;94.09;100537.44;10462618;28;20098;-78
2023/01/31 13:27:33;;;;;;;26.00;15.20;;;;;;;3.25;93.75;100510.38;10450372;28;20041;-78
2023/01/31 13:32:41;;;;;;;26.50;15.48;;;;;;;3.19;93.16;100526.59;10463223;28;20053;-78
2023/01/31 13:37:45;;;;;;;21.40;11.98;;;;;;;3.01;94.41;100525.69;10459601;28;20052;-78
2023/01/31 13:42:52;;;;;;;32.97;21.30;;;;;;;3.30;94.60;100518.13;10456999;28;20052;-78
2023/01/31 13:48:02;;;;;;;15.45;10.65;;;;;;;3.25;94.17;100528.09;10461812;28;20583;-78
2023/01/31 13:53:12;;;;;;;26.02;16.73;;;;;;;3.17;95.97;100506.38;10470826;28;20056;-77
2023/01/31 13:58:22;;;;;;;27.15;12.93;;;;;;;3.33;93.72;100506.50;10491642;28;20040;-77
2023/01/31 14:03:25;;;;;;;15.52;10.32;;;;;;;3.27;95.03;100502.34;10482976;28;20045;-78
2023/01/31 14:08:38;;;;;;;16.42;10.30;;;;;;;3.22;95.53;100491.94;10461528;28;20037;-79
2023/01/31 14:13:44;;;;;;;9.80;6.45;;;;;;;3.36;94.03;100495.72;10490546;28;20045;-79
2023/01/31 14:18:47;;;;;;;16.20;9.02;;;;;;;3.52;93.92;100485.22;10473616;28;20071;-78
2023/01/31 14:23:50;;;;;;;16.80;11.35;;;;;;;3.63;93.92;100464.28;10483665;28;20660;-79
2023/01/31 14:28:54;;;;;;;18.05;12.95;;;;;;;3.79;93.17;100475.84;10489155;28;20059;-78
2023/01/31 14:33:57;;;;;;;26.77;10.82;;;;;;;3.52;93.99;100475.44;10488235;28;20052;-78
2023/01/31 14:39:30;;;;;;;13.50;8.60;;;;;;;3.68;92.91;100481.69;10512772;28;20044;-78
2023/01/31 14:44:46;;;;;;;13.63;8.77;;;;;;;3.66;93.12;100469.44;10463493;28;20167;-78
2023/01/31 14:50:13;;;;;;;21.95;11.18;;;;;;;3.99;91.59;100484.56;10468400;28;20053;-78
2023/01/31 14:55:34;;;;;;;16.15;10.93;;;;;;;4.00;92.80;100488.94;10490293;28;20071;-78
2023/01/31 15:00:46;;;;;;;16.80;11.05;;;;;;;3.88;92.52;100485.13;10474876;28;20052;-79
2023/01/31 15:05:51;;;;;;;20.10;12.25;;;;;;;4.13;91.74;100495.34;10469819;28;20135;-80
2023/01/31 15:11:00;;;;;;;16.58;9.20;;;;;;;4.00;90.83;100505.75;10475412;28;20055;-80
2023/01/31 15:16:07;;;;;;;17.50;12.10;;;;;;;4.12;90.78;100494.50;10464242;28;21309;-80
2023/01/31 15:21:11;;;;;;;12.70;8.93;;;;;;;4.23;89.64;100503.72;10463903;28;20189;-80
2023/01/31 15:26:16;;;;;;;15.27;7.28;;;;;;;4.16;90.16;100501.34;10456694;28;20514;-79
2023/01/31 15:31:27;;;;;;;22.05;14.68;;;;;;;4.58;88.60;100507.13;10430869;28;20053;-80
2023/01/31 15:36:33;;;;;;;16.40;9.60;;;;;;;4.29;89.59;100485.63;10423721;28;20508;-78
2023/01/31 15:41:38;;;;;;;20.15;10.52;;;;;;;4.34;90.39;100485.38;10441840;28;20072;-79
2023/01/31 15:46:45;;;;;;;13.70;8.60;;;;;;;4.26;90.81;100461.00;10441639;28;20048;-80
2023/01/31 15:52:02;;;;;;;18.65;11.88;;;;;;;4.29;90.08;100435.09;10447532;28;20056;-80
2023/01/31 15:57:11;;;;;;;22.42;14.50;;;;;;;4.46;88.63;100486.50;10458726;28;20060;-78
2023/01/31 16:02:22;;;;;;;18.45;11.18;;;;;;;4.51;89.12;100501.28;10461923;28;20793;-80
2023/01/31 16:07:30;;;;;;;15.77;12.30;;;;;;;4.44;89.37;100491.03;10460984;28;20182;-79
2023/01/31 16:12:36;;;;;;;20.63;10.98;;;;;;;4.36;90.93;100497.66;10450991;28;20184;-79
2023/01/31 16:17:40;;;;;;;22.15;11.38;;;;;;;4.53;90.01;100509.19;10456591;28;20106;-80
2023/01/31 16:22:56;;;;;;;18.17;11.50;;;;;;;4.37;90.02;100487.88;10461477;28;20680;-79
2023/01/31 16:28:01;;;;;;;17.30;10.68;;;;;;;4.25;92.53;100500.03;10456000;28;20089;-80
2023/01/31 16:33:05;;;;;;;19.92;11.63;;;;;;;4.35;91.85;100500.38;10457515;28;20458;-79
2023/01/31 16:38:20;;;;;;;27.88;15.00;;;;;;;4.42;92.52;100504.44;10449254;28;20450;-79
2023/01/31 16:43:26;;;;;;;22.48;14.60;;;;;;;4.43;91.20;100503.50;10431907;28;20527;-79
2023/01/31 16:48:32;;;;;;;22.85;12.52;;;;;;;4.49;91.09;100496.97;10447053;28;20430;-80
2023/01/31 16:53:38;;;;;;;17.73;11.02;;;;;;;4.31;90.12;100526.28;10449534;28;20118;-79
2023/01/31 16:58:48;;;;;;;18.25;11.13;;;;;;;4.44;90.24;100529.13;10438905;28;21604;-79
2023/01/31 17:04:19;;;;;;;23.05;12.25;;;;;;;4.75;89.05;100532.84;10424049;28;20045;-79
2023/01/31 17:09:22;;;;;;;19.98;12.02;;;;;;;4.62;90.06;100544.13;10437530;28;20048;-79
2023/01/31 17:14:25;;;;;;;21.08;9.95;;;;;;;4.80;88.27;100544.94;10423186;28;20178;-79
2023/01/31 17:19:30;;;;;;;20.83;6.28;;;;;;;4.44;87.31;100528.28;10443106;28;20055;-78
2023/01/31 17:24:32;;;;;;;14.98;5.00;;;;;;;4.58;85.31;100529.28;10463134;28;21337;-79
2023/01/31 17:29:35;;;;;;;15.27;7.25;;;;;;;4.68;85.44;100539.44;10455421;28;20659;-78
2023/01/31 17:34:40;;;;;;;18.80;9.07;;;;;;;4.55;86.63;100540.09;10451968;28;20051;-79
2023/01/31 17:39:43;;;;;;;20.80;8.93;;;;;;;4.59;87.25;100535.47;10451510;28;20239;-78
2023/01/31 17:44:46;;;;;;;27.05;10.77;;;;;;;5.00;85.64;100541.22;10440739;28;20083;-79
2023/01/31 17:49:50;;;;;;;19.85;9.57;;;;;;;4.75;87.06;100533.69;10439282;28;20076;-79
2023/01/31 17:54:53;;;;;;;18.83;7.75;;;;;;;4.67;85.61;100533.25;10424671;28;20077;-79
2023/01/31 17:59:55;;;;;;;15.23;5.28;;;;;;;4.81;83.60;100540.47;10441858;28;20041;-77
2023/01/31 18:04:59;;;;;;;16.98;4.68;;;;;;;4.59;80.96;100546.97;10443135;28;20097;-75
2023/01/31 18:10:03;;;;;;;12.35;3.72;;;;;;;4.73;78.23;100540.88;10443363;28;20069;-79
2023/01/31 18:15:07;;;;;;;13.93;3.50;;;;;;;4.65;77.38;100548.44;10439892;28;20499;-78
2023/01/31 18:20:12;;;;;;;18.08;5.38;;;;;;;4.77;78.26;100550.44;10462032;28;20052;-78
2023/01/31 18:25:15;;;;;;;18.33;4.57;;;;;;;4.45;79.11;100543.31;10466471;28;20048;-78
2023/01/31 18:30:19;;;;;;;17.13;4.78;;;;;;;5.13;77.22;100561.81;10458866;28;20101;-78
2023/01/31 18:35:23;;;;;;;18.67;6.25;;;;;;;4.25;80.99;100547.91;10452880;28;20059;-78
2023/01/31 18:40:25;;;;;;;18.55;4.57;;;;;;;4.44;78.87;100547.75;10455920;28;20044;-78
2023/01/31 18:45:28;;;;;;;15.93;3.40;;;;;;;4.34;78.77;100543.88;10459368;28;20049;-78
2023/01/31 18:50:32;;;;;;;15.98;3.88;;;;;;;4.75;77.60;100547.00;10453673;28;20135;-78
2023/01/31 18:55:35;;;;;;;16.85;4.00;;;;;;;4.38;78.87;100548.09;10451714;28;20116;-78
2023/01/31 19:00:38;;;;;;;18.20;3.45;;;;;;;4.35;78.68;100553.56;10455594;28;20052;-77
2023/01/31 19:05:42;;;;;;;14.10;3.00;;;;;;;4.08;78.40;100545.22;10458695;28;20048;-78
2023/01/31 19:10:45;;;;;;;16.83;3.85;;;;;;;4.50;77.27;100551.91;10450070;28;20063;-78
2023/01/31 19:15:48;;;;;;;16.25;3.65;;;;;;;4.11;77.93;100540.63;10434141;28;20044;-78
2023/01/31 19:20:52;;;;;;;10.52;2.55;;;;;;;4.65;76.10;100560.88;10442854;28;20053;-78
2023/01/31 19:25:55;;;;;;;12.23;2.92;;;;;;;4.35;76.53;100554.44;10438305;28;20123;-78
2023/01/31 19:31:03;;;;;;;13.95;3.38;;;;;;;4.44;76.10;100571.69;10459584;28;20044;-78
2023/01/31 19:36:13;;;;;;;15.40;2.85;;;;;;;4.28;75.20;100552.16;10457471;28;20047;-78
2023/01/31 19:41:19;;;;;;;10.55;2.35;;;;;;;4.10;75.72;100565.47;10466007;28;20696;-78
2023/01/31 19:46:24;;;;;;;25.80;3.33;;;;;;;4.25;75.32;100577.16;10464676;28;20693;-78
2023/01/31 19:51:29;;;;;;;22.98;3.10;;;;;;;4.14;75.94;100585.66;10461639;28;20125;-78
2023/01/31 19:56:32;;;;;;;18.00;4.50;;;;;;;4.37;75.20;100584.47;10466619;28;20049;-78
2023/01/31 20:01:35;;;;;;;18.27;3.20;;;;;;;4.10;74.50;100605.38;10463321;28;20055;-77
2023/01/31 20:06:39;;;;;;;16.83;3.55;;;;;;;3.79;76.06;100619.34;10463927;28;20044;-79
2023/01/31 20:11:42;;;;;;;14.55;3.25;;;;;;;4.20;75.04;100612.88;10464083;28;20183;-79
2023/01/31 20:16:45;;;;;;;16.85;3.30;;;;;;;4.06;74.77;100618.88;10441029;28;20049;-79
2023/01/31 20:21:49;;;;;;;15.35;3.38;;;;;;;3.97;74.59;100625.53;10448702;28;20087;-78
2023/01/31 20:26:52;;;;;;;12.63;3.15;;;;;;;4.01;74.32;100627.09;10456672;28;20102;-78
2023/01/31 20:31:55;;;;;;;7.75;1.67;;;;;;;3.69;75.02;100618.91;10454068;28;20072;-78
2023/01/31 20:36:59;;;;;;;17.52;3.53;;;;;;;3.77;74.39;100615.88;10454910;28;20053;-79
2023/01/31 20:42:02;;;;;;;17.38;2.97;;;;;;;3.90;74.21;100611.69;10454853;28;20102;-78
2023/01/31 20:47:06;;;;;;;20.20;3.70;;;;;;;3.75;74.03;100600.94;10452846;28;21303;-78
2023/01/31 20:52:10;;;;;;;16.73;3.08;;;;;;;4.01;73.36;100597.00;10427704;28;20172;-78
2023/01/31 20:57:13;;;;;;;15.23;3.00;;;;;;;3.91;73.86;100610.75;10443399;28;21592;-77
2023/01/31 21:02:15;;;;;;;23.73;4.38;;;;;;;3.79;74.09;100599.88;10454023;28;20144;-78
2023/01/31 21:07:20;;;;;;;16.65;3.33;;;;;;;3.94;73.53;100604.41;10463288;28;20067;-78
2023/01/31 21:12:22;;;;;;;13.20;2.80;;;;;;;3.67;74.38;100598.66;10457393;28;20062;-76
2023/01/31 21:17:25;;;;;;;17.73;2.72;;;;;;;3.82;74.07;100618.31;10459537;28;20048;-79
2023/01/31 21:22:43;;;;;;;19.25;3.15;;;;;;;3.58;74.67;100609.75;10459939;28;20542;-78
2023/01/31 21:27:48;;;;;;;17.83;3.53;;;;;;;3.69;74.49;100613.59;10459089;28;20045;-78
2023/01/31 21:32:51;;;;;;;15.32;3.00;;;;;;;3.51;75.46;100611.81;10463510;28;20055;-78
2023/01/31 21:37:55;;;;;;;16.63;3.08;;;;;;;3.81;74.60;100606.81;10456005;28;20511;-78
2023/01/31 21:42:58;;;;;;;18.52;4.30;;;;;;;3.60;74.42;100615.84;10454705;28;20071;-77
2023/01/31 21:53:22;;;;;;;20.65;3.33;;;;;;;3.58;74.76;100607.94;10452832;28;20053;-77
2023/01/31 21:58:25;;;;;;;19.73;3.17;;;;;;;3.41;74.94;100610.56;10487132;28;20048;-77
2023/01/31 22:03:28;;;;;;;14.45;2.58;;;;;;;3.30;74.53;100620.81;10494962;28;20037;-78
2023/01/31 22:08:32;;;;;;;19.02;3.03;;;;;;;3.37;74.90;100598.34;10490807;28;20080;-77
2023/01/31 22:13:35;;;;;;;20.98;4.32;;;;;;;3.40;75.17;100614.13;10498501;28;20040;-77
2023/01/31 22:18:40;;;;;;;18.80;3.67;;;;;;;3.42;74.80;100604.28;10495346;28;20055;-78
2023/01/31 22:23:47;;;;;;;19.25;3.25;;;;;;;3.40;74.15;100612.34;10467070;28;20037;-79
2023/01/31 22:28:53;;;;;;;23.42;4.10;;;;;;;3.64;73.41;100596.16;10458591;28;20059;-78
2023/01/31 22:33:58;;;;;;;17.65;3.78;;;;;;;3.35;74.78;100592.28;10464041;28;20051;-79
2023/01/31 22:39:03;;;;;;;19.48;4.22;;;;;;;3.28;74.69;100589.03;10459393;28;20045;-77
2023/01/31 22:44:05;;;;;;;18.33;3.67;;;;;;;3.34;73.59;100586.06;10478954;28;20068;-78
2023/01/31 22:49:08;;;;;;;18.33;2.78;;;;;;;3.12;74.58;100588.88;10486078;28;20122;-77
2023/01/31 22:54:13;;;;;;;24.42;3.90;;;;;;;3.05;75.11;100584.81;10474009;28;20420;-78
2023/01/31 22:59:16;;;;;;;16.60;3.65;;;;;;;3.22;74.29;100591.97;10457240;28;20041;-78
2023/01/31 23:04:19;;;;;;;15.05;2.45;;;;;;;3.01;75.05;100578.75;10466356;28;20037;-78
2023/01/31 23:09:23;;;;;;;24.27;3.60;;;;;;;3.04;74.36;100575.09;10478779;28;20051;-79
2023/01/31 23:14:26;;;;;;;25.88;3.28;;;;;;;3.02;75.09;100571.69;10466836;28;20056;-78
2023/01/31 23:19:29;;;;;;;21.08;2.70;;;;;;;2.75;75.23;100587.06;10477967;28;20049;-76
2023/01/31 23:24:34;;;;;;;7.22;1.85;;;;;;;2.78;75.36;100585.13;10492356;28;20107;-80
2023/01/31 23:29:37;;;;;;;16.70;3.28;;;;;;;3.00;75.19;100582.34;10482709;28;20055;-76
2023/01/31 23:34:40;;;;;;;14.13;3.22;;;;;;;3.28;74.50;100568.63;10489091;28;20049;-79
2023/01/31 23:39:46;;;;;;;20.17;3.17;;;;;;;2.88;75.88;100568.78;10485728;28;20044;-78
2023/01/31 23:44:48;;;;;;;18.05;2.95;;;;;;;3.22;74.69;100568.94;10500996;28;20049;-79
2023/01/31 23:49:51;;;;;;;14.88;2.42;;;;;;;2.88;75.59;100572.31;10492700;28;20049;-79